Time;durP1;ratioP1;P1;durP2;ratioP2;P2;SDS_P1;SDS_P2;PMS_P1;PMS_P2;Temp;Humidity;BMP_temperature;BMP_pressure;BME280_temperature;BME280_humidity;BME280_pressure;Samples;Min_cycle;Max_cycle;Signal;HPM_P1;HPM_P2
2021/09/30 00:00:07;;;;;;;2.88;1.25;;;11.10;95.20;;;;;;5094472;28;20030;-71
2021/09/30 00:02:33;;;;;;;3.60;1.15;;;11.10;95.40;;;;;;5097176;28;20031;-72
2021/09/30 00:04:59;;;;;;;2.08;0.93;;;11.10;95.10;;;;;;5097111;28;20028;-72
2021/09/30 00:07:25;;;;;;;3.25;1.20;;;11.20;94.60;;;;;;5097065;28;20031;-73
2021/09/30 00:09:51;;;;;;;6.47;1.48;;;11.30;94.00;;;;;;5096872;28;20131;-72
2021/09/30 00:12:24;;;;;;;1.88;1.02;;;11.20;94.30;;;;;;5096941;28;20396;-72
2021/09/30 00:39:36;;;;;;;3.38;1.02;;;10.90;93.90;;;;;;5096864;28;20028;-71
2021/09/30 00:50:10;;;;;;;2.00;0.82;;;10.70;92.90;;;;;;5054140;28;20029;-72
2021/09/30 00:52:48;;;;;;;2.45;1.00;;;10.70;92.70;;;;;;5088095;28;20036;-72
2021/09/30 02:27:53;;;;;;;4.10;1.50;;;9.50;94.30;;;;;;5094402;28;20023;-72
2021/09/30 02:30:56;;;;;;;1.67;1.05;;;9.50;94.10;;;;;;5094679;28;20035;-73
2021/09/30 02:58:49;;;;;;;3.83;1.40;;;9.60;94.40;;;;;;5093923;28;20104;-72
2021/09/30 03:01:03;;;;;;;4.72;1.52;;;9.60;94.50;;;;;;5088269;28;20024;-72
2021/09/30 03:03:33;;;;;;;1.77;1.20;;;9.50;94.70;;;;;;5092311;28;20024;-72
2021/09/30 03:05:59;;;;;;;6.60;1.33;;;9.60;94.30;;;;;;5094373;28;20016;-71
2021/09/30 03:08:26;;;;;;;2.55;1.30;;;9.60;93.20;;;;;;5093717;28;20606;-72
2021/09/30 03:10:55;;;;;;;3.47;1.20;;;9.70;92.70;;;;;;5093255;28;20066;-72
2021/09/30 03:13:25;;;;;;;2.65;1.17;;;9.70;92.60;;;;;;5093548;28;20024;-72
2021/09/30 03:16:04;;;;;;;4.07;1.27;;;9.80;92.20;;;;;;5093881;28;20020;-71
2021/09/30 03:23:37;;;;;;;4.80;1.40;;;9.50;92.30;;;;;;5093822;28;20023;-73
2021/09/30 03:26:03;;;;;;;2.85;0.98;;;9.60;92.20;;;;;;5093498;28;20047;-72
2021/09/30 03:28:31;;;;;;;2.78;1.25;;;9.50;92.40;;;;;;5093498;28;20020;-72
2021/09/30 03:30:59;;;;;;;3.13;1.40;;;9.50;92.50;;;;;;5093709;28;20468;-72
2021/09/30 03:33:25;;;;;;;3.25;1.30;;;9.50;92.70;;;;;;5093327;28;20016;-71
2021/09/30 03:35:51;;;;;;;1.63;1.23;;;9.40;93.20;;;;;;5092821;28;20024;-71
2021/09/30 03:38:20;;;;;;;3.30;1.30;;;9.30;93.30;;;;;;5093625;28;20069;-72
2021/09/30 03:40:45;;;;;;;2.47;0.90;;;9.30;93.40;;;;;;5093900;28;20012;-71
2021/09/30 03:43:11;;;;;;;4.25;1.15;;;9.20;93.60;;;;;;5093266;28;20472;-72
2021/09/30 03:45:37;;;;;;;2.90;1.00;;;9.10;94.00;;;;;;5093268;28;20114;-72
2021/09/30 03:48:04;;;;;;;2.28;1.10;;;9.20;93.90;;;;;;5093263;28;20013;-73
2021/09/30 03:51:03;;;;;;;1.55;0.95;;;9.20;93.70;;;;;;5093291;28;20028;-73
2021/09/30 03:53:22;;;;;;;1.75;0.70;;;9.20;92.80;;;;;;5092722;28;20050;-73
2021/09/30 04:01:17;;;;;;;2.72;0.90;;;9.20;92.20;;;;;;5093470;28;20039;-72
2021/09/30 04:03:43;;;;;;;3.10;0.93;;;9.20;92.10;;;;;;5093370;28;20027;-72
2021/09/30 04:06:09;;;;;;;1.85;0.85;;;9.20;92.30;;;;;;5093125;28;20024;-72
2021/09/30 04:08:35;;;;;;;2.97;1.23;;;9.30;92.50;;;;;;5093064;28;20016;-72
2021/09/30 04:11:01;;;;;;;3.25;1.10;;;9.30;92.40;;;;;;5092625;28;20051;-73
2021/09/30 04:13:28;;;;;;;2.45;1.10;;;9.30;92.40;;;;;;5092955;28;20155;-72
2021/09/30 04:15:54;;;;;;;2.40;0.93;;;9.30;92.50;;;;;;5092949;28;20469;-72
2021/09/30 04:18:20;;;;;;;2.65;1.08;;;9.20;92.50;;;;;;5093024;28;20523;-72
2021/09/30 04:20:45;;;;;;;4.13;1.25;;;9.20;92.50;;;;;;5092870;28;20012;-73
2021/09/30 04:23:11;;;;;;;3.10;1.10;;;9.10;92.50;;;;;;5093207;28;20031;-72
2021/09/30 04:25:38;;;;;;;5.60;1.15;;;9.10;92.60;;;;;;5092931;28;20020;-73
2021/09/30 04:28:04;;;;;;;2.13;0.95;;;8.90;93.00;;;;;;5092928;28;20016;-72
2021/09/30 04:30:30;;;;;;;2.78;1.63;;;8.80;92.50;;;;;;5092903;28;20035;-72
2021/09/30 04:32:55;;;;;;;5.45;1.00;;;8.70;92.80;;;;;;5092767;28;20031;-72
2021/09/30 04:35:21;;;;;;;1.73;0.82;;;8.70;92.90;;;;;;5093091;28;20032;-72
2021/09/30 04:37:47;;;;;;;1.63;1.05;;;8.60;93.00;;;;;;5092810;28;20017;-73
2021/09/30 04:40:14;;;;;;;1.98;1.23;;;8.70;93.00;;;;;;5092782;28;20388;-71
2021/09/30 04:42:39;;;;;;;4.55;1.45;;;8.80;93.00;;;;;;5092719;28;20024;-72
2021/09/30 04:45:06;;;;;;;5.40;1.60;;;8.90;92.80;;;;;;5092740;28;20468;-72
2021/09/30 04:47:32;;;;;;;2.88;1.20;;;8.90;92.90;;;;;;5094106;28;20027;-73
2021/09/30 04:49:57;;;;;;;3.00;1.08;;;8.90;93.20;;;;;;5096312;28;20484;-72
2021/09/30 04:52:23;;;;;;;1.55;1.05;;;8.80;93.10;;;;;;5096222;28;20027;-71
2021/09/30 04:54:49;;;;;;;1.80;1.00;;;8.80;93.30;;;;;;5096526;28;20107;-72
2021/09/30 04:57:16;;;;;;;3.88;1.00;;;8.70;93.60;;;;;;5096188;28;20538;-73
2021/09/30 04:59:42;;;;;;;3.45;1.38;;;8.70;93.50;;;;;;5096305;28;20036;-73
2021/09/30 05:02:07;;;;;;;2.97;1.30;;;8.70;93.50;;;;;;5096395;28;20476;-71
2021/09/30 05:04:33;;;;;;;2.78;1.30;;;8.70;92.70;;;;;;5096079;28;20452;-73
2021/09/30 05:06:59;;;;;;;2.53;1.08;;;8.60;92.50;;;;;;5095997;28;20024;-72
2021/09/30 05:09:27;;;;;;;3.05;1.13;;;8.60;92.50;;;;;;5095756;28;20561;-73
2021/09/30 05:11:58;;;;;;;2.72;0.93;;;8.50;92.70;;;;;;5095827;28;20020;-71
2021/09/30 05:14:24;;;;;;;3.03;0.95;;;8.50;92.40;;;;;;5096158;28;20526;-72
2021/09/30 05:16:51;;;;;;;2.65;1.60;;;8.50;92.40;;;;;;5095788;28;20016;-72
2021/09/30 05:19:17;;;;;;;3.40;1.50;;;8.60;93.20;;;;;;5094481;28;20024;-72
2021/09/30 05:21:43;;;;;;;3.40;1.30;;;8.60;93.20;;;;;;5095648;28;20032;-73
2021/09/30 05:24:09;;;;;;;3.65;1.48;;;8.60;93.20;;;;;;5095662;28;20489;-72
2021/09/30 05:26:35;;;;;;;2.88;1.00;;;8.60;93.20;;;;;;5095608;28;20047;-72
2021/09/30 05:29:01;;;;;;;3.53;0.90;;;8.60;93.00;;;;;;5095843;28;20024;-71
2021/09/30 05:31:28;;;;;;;3.28;1.20;;;8.50;93.40;;;;;;5095442;28;20035;-73
2021/09/30 05:33:54;;;;;;;2.83;1.00;;;8.50;93.20;;;;;;5095460;28;20495;-73
2021/09/30 05:36:22;;;;;;;1.33;1.15;;;8.50;93.00;;;;;;5095430;28;20020;-73
2021/09/30 05:38:47;;;;;;;1.70;1.13;;;8.30;92.50;;;;;;5095971;28;20028;-72
2021/09/30 05:41:13;;;;;;;3.05;1.38;;;8.10;92.90;;;;;;5095314;28;20510;-72
2021/09/30 05:43:41;;;;;;;3.58;1.33;;;8.10;92.70;;;;;;5095472;28;20484;-72
2021/09/30 05:46:09;;;;;;;5.30;1.88;;;8.20;93.00;;;;;;5095440;28;20023;-72
2021/09/30 05:48:35;;;;;;;2.10;1.13;;;8.20;93.10;;;;;;5095480;28;20104;-72
2021/09/30 05:51:01;;;;;;;2.10;1.23;;;8.30;93.10;;;;;;5095144;28;20043;-72
2021/09/30 05:53:26;;;;;;;2.78;1.10;;;8.40;92.80;;;;;;5095020;28;20464;-72
2021/09/30 05:55:52;;;;;;;6.63;1.65;;;8.40;92.90;;;;;;5095324;28;20021;-72
2021/09/30 05:58:18;;;;;;;6.28;1.45;;;8.30;93.00;;;;;;5094558;28;20478;-72
2021/09/30 06:13:59;;;;;;;2.65;1.25;;;8.30;93.90;;;;;;5094962;28;20361;-72
2021/09/30 06:16:26;;;;;;;3.13;1.40;;;8.30;93.30;;;;;;5093140;28;20020;-72
2021/09/30 06:18:53;;;;;;;4.97;1.35;;;8.10;93.90;;;;;;5095171;28;20099;-72
2021/09/30 06:21:19;;;;;;;7.25;1.80;;;8.00;94.00;;;;;;5094479;28;20100;-72
2021/09/30 06:23:44;;;;;;;2.55;1.27;;;8.10;94.00;;;;;;5094813;28;20430;-71
2021/09/30 06:26:10;;;;;;;3.08;1.20;;;8.10;93.40;;;;;;5094475;28;20047;-73
2021/09/30 06:28:36;;;;;;;2.45;1.30;;;8.10;93.20;;;;;;5094408;28;20105;-73
2021/09/30 06:31:03;;;;;;;2.65;1.08;;;8.20;93.10;;;;;;5093086;28;20120;-72
2021/09/30 06:33:30;;;;;;;3.03;1.38;;;8.20;92.70;;;;;;5094247;28;20044;-72
2021/09/30 06:35:56;;;;;;;8.40;3.28;;;8.20;92.80;;;;;;5094304;28;20024;-71
2021/09/30 06:38:22;;;;;;;8.85;3.00;;;8.20;92.70;;;;;;5094266;28;20024;-72
2021/09/30 06:40:48;;;;;;;5.25;2.40;;;8.30;92.70;;;;;;5094463;28;20024;-73
2021/09/30 06:43:14;;;;;;;3.40;2.17;;;8.50;92.70;;;;;;5094431;28;20027;-73
2021/09/30 06:45:39;;;;;;;3.25;2.35;;;8.50;92.80;;;;;;5094130;28;20070;-72
2021/09/30 06:48:05;;;;;;;5.28;2.20;;;8.40;93.40;;;;;;5094340;28;20012;-73
2021/09/30 06:50:31;;;;;;;7.18;2.72;;;8.50;93.50;;;;;;5094026;28;20036;-72
2021/09/30 06:52:57;;;;;;;5.53;2.45;;;8.60;93.60;;;;;;5093909;28;20107;-71
2021/09/30 06:55:23;;;;;;;5.38;2.10;;;8.70;93.70;;;;;;5093961;28;20099;-72
2021/09/30 06:57:50;;;;;;;3.03;1.70;;;8.60;93.70;;;;;;5093918;28;20380;-72
2021/09/30 07:00:16;;;;;;;6.03;1.77;;;8.40;93.90;;;;;;5093872;28;20020;-72
2021/09/30 07:02:43;;;;;;;4.00;1.40;;;8.40;94.60;;;;;;5093812;28;20387;-73
2021/09/30 07:05:10;;;;;;;3.63;1.35;;;8.40;95.00;;;;;;5093799;28;20370;-72
2021/09/30 07:07:37;;;;;;;4.47;1.58;;;8.30;95.00;;;;;;5094311;28;20016;-72
2021/09/30 07:10:05;;;;;;;4.97;2.25;;;8.20;94.90;;;;;;5092995;28;20093;-72
2021/09/30 07:12:31;;;;;;;3.28;1.50;;;8.30;94.90;;;;;;5094121;28;20115;-72
2021/09/30 07:14:56;;;;;;;5.18;1.83;;;8.30;95.30;;;;;;5093629;28;20054;-73
2021/09/30 07:17:24;;;;;;;5.15;2.10;;;8.30;95.60;;;;;;5093620;28;20369;-72
2021/09/30 07:19:49;;;;;;;7.25;2.40;;;8.30;95.90;;;;;;5093495;28;20048;-73
2021/09/30 07:22:15;;;;;;;4.57;2.00;;;8.40;96.10;;;;;;5093770;28;20476;-72
2021/09/30 07:24:41;;;;;;;6.25;2.92;;;8.40;96.60;;;;;;5093530;28;20033;-74
2021/09/30 07:27:08;;;;;;;12.38;5.68;;;8.30;99.90;;;;;;5094064;28;20020;-74
2021/09/30 07:29:34;;;;;;;8.63;3.00;;;7.90;99.90;;;;;;5093447;28;20419;-76
2021/09/30 07:32:00;;;;;;;9.90;2.92;;;7.80;99.90;;;;;;5093525;28;20031;-75
2021/09/30 07:34:26;;;;;;;5.60;2.65;;;7.80;99.90;;;;;;5093410;28;20433;-74
2021/09/30 07:36:52;;;;;;;6.75;2.75;;;7.80;99.90;;;;;;5093330;28;20052;-73
2021/09/30 07:39:19;;;;;;;7.22;3.20;;;7.80;99.90;;;;;;5093327;28;20091;-73
2021/09/30 07:41:45;;;;;;;8.30;3.30;;;7.90;99.90;;;;;;5093342;28;20028;-74
2021/09/30 07:44:11;;;;;;;8.98;3.10;;;8.00;99.90;;;;;;5093313;28;20016;-73
2021/09/30 07:46:39;;;;;;;10.05;3.80;;;8.10;99.90;;;;;;5093298;28;20036;-72
2021/09/30 07:49:05;;;;;;;11.55;4.88;;;8.30;99.90;;;;;;5093551;28;20511;-74
2021/09/30 07:51:32;;;;;;;13.10;4.55;;;8.50;99.90;;;;;;5091774;28;20470;-74
2021/09/30 07:53:58;;;;;;;13.60;4.47;;;8.60;99.90;;;;;;5093188;28;20054;-73
2021/09/30 07:56:24;;;;;;;10.05;4.40;;;8.90;99.90;;;;;;5093173;28;20020;-74
2021/09/30 07:58:50;;;;;;;10.55;3.72;;;9.40;99.90;;;;;;5093745;28;20026;-74
2021/09/30 08:01:16;;;;;;;12.40;4.10;;;9.70;99.90;;;;;;5093383;28;20101;-73
2021/09/30 08:03:41;;;;;;;10.02;3.75;;;10.00;99.90;;;;;;5093159;28;20020;-74
2021/09/30 08:06:07;;;;;;;10.57;4.07;;;10.20;99.90;;;;;;5093376;28;20468;-74
2021/09/30 08:08:34;;;;;;;14.43;3.53;;;10.70;99.90;;;;;;5093082;28;20031;-73
2021/09/30 08:10:59;;;;;;;9.57;2.38;;;11.30;99.90;;;;;;5092684;28;20052;-73
2021/09/30 08:13:26;;;;;;;8.18;2.13;;;11.90;99.90;;;;;;5093538;28;20031;-74
2021/09/30 08:15:51;;;;;;;8.13;2.40;;;12.30;99.90;;;;;;5093318;28;20395;-72
2021/09/30 08:18:18;;;;;;;11.57;2.60;;;12.60;99.90;;;;;;5093026;28;20024;-73
2021/09/30 08:20:44;;;;;;;7.85;1.60;;;12.80;99.90;;;;;;5093271;28;20120;-74
2021/09/30 08:23:12;;;;;;;3.13;1.23;;;13.00;99.90;;;;;;5096883;28;20048;-74
2021/09/30 08:25:38;;;;;;;5.68;1.50;;;13.30;99.90;;;;;;5096854;28;20031;-75
2021/09/30 08:28:04;;;;;;;8.48;1.63;;;13.40;99.90;;;;;;5097059;28;20020;-74
2021/09/30 08:30:30;;;;;;;9.05;2.25;;;13.70;99.90;;;;;;5097287;28;20387;-74
2021/09/30 08:32:56;;;;;;;6.20;1.63;;;13.90;99.90;;;;;;5097171;28;20035;-76
2021/09/30 08:35:21;;;;;;;7.57;1.63;;;14.10;99.90;;;;;;5096924;28;20388;-73
2021/09/30 08:37:47;;;;;;;8.18;1.90;;;14.30;99.90;;;;;;5096567;28;20024;-75
2021/09/30 08:40:14;;;;;;;6.82;1.60;;;14.60;99.90;;;;;;5096802;28;20038;-76
2021/09/30 08:42:41;;;;;;;6.00;1.60;;;14.80;99.00;;;;;;5096487;28;20020;-74
2021/09/30 08:45:07;;;;;;;8.35;2.17;;;15.10;99.80;;;;;;5096710;28;20392;-76
2021/09/30 08:47:34;;;;;;;9.60;1.98;;;15.20;99.90;;;;;;5096313;28;20519;-75
2021/09/30 08:50:01;;;;;;;5.50;1.55;;;15.50;99.20;;;;;;5096343;28;20105;-75
2021/09/30 08:52:26;;;;;;;4.85;1.60;;;15.60;96.50;;;;;;5096241;28;20068;-75
2021/09/30 08:54:52;;;;;;;4.18;1.38;;;15.80;95.10;;;;;;5096209;28;20033;-76
2021/09/30 08:57:18;;;;;;;5.45;1.40;;;16.10;93.70;;;;;;5096220;28;20027;-76
2021/09/30 09:00:04;;;;;;;7.13;1.02;;;16.40;90.60;;;;;;5096166;28;20032;-75
2021/09/30 09:02:29;;;;;;;5.30;1.38;;;16.40;91.20;;;;;;5096081;28;20065;-74
2021/09/30 09:04:56;;;;;;;5.53;1.30;;;16.60;87.70;;;;;;5095935;28;20422;-76
2021/09/30 09:07:28;;;;;;;11.63;1.83;;;16.70;90.40;;;;;;5096024;28;20480;-74
2021/09/30 09:09:56;;;;;;;9.32;1.50;;;16.90;91.10;;;;;;5095925;28;20048;-75
2021/09/30 09:12:23;;;;;;;2.67;1.05;;;17.00;87.60;;;;;;5096189;28;20032;-75
2021/09/30 09:14:49;;;;;;;6.75;1.42;;;17.20;85.70;;;;;;5095912;28;20073;-75
2021/09/30 09:17:17;;;;;;;5.10;1.40;;;17.50;85.10;;;;;;5096180;28;20024;-75
2021/09/30 09:19:44;;;;;;;8.73;2.72;;;17.70;88.20;;;;;;5095721;28;20024;-73
2021/09/30 09:22:15;;;;;;;7.68;1.33;;;17.90;85.20;;;;;;5095668;28;20020;-75
2021/09/30 09:24:56;;;;;;;6.57;1.45;;;18.10;85.50;;;;;;5095681;28;20020;-76
2021/09/30 09:27:22;;;;;;;;;;;18.50;81.60;;;;;;5096068;28;20095;-75
2021/09/30 09:29:48;;;;;;;4.28;1.45;;;18.70;81.70;;;;;;5095601;28;19951;-73
2021/09/30 09:32:13;;;;;;;6.07;1.25;;;18.70;80.90;;;;;;5095220;28;20020;-75
2021/09/30 09:34:40;;;;;;;5.13;1.65;;;18.80;78.70;;;;;;5095063;28;20035;-75
2021/09/30 09:37:32;;;;;;;5.32;1.30;;;18.90;80.10;;;;;;5095411;28;20034;-75
2021/09/30 09:40:11;;;;;;;6.75;1.50;;;18.80;77.00;;;;;;5095688;28;20057;-74
2021/09/30 09:42:37;;;;;;;5.20;1.50;;;18.60;79.20;;;;;;5095844;28;20537;-75
2021/09/30 09:45:05;;;;;;;4.47;1.60;;;18.50;79.50;;;;;;5095308;28;20021;-76
2021/09/30 09:47:36;;;;;;;6.00;1.30;;;18.50;81.90;;;;;;5095199;28;20035;-74
2021/09/30 09:50:17;;;;;;;6.30;1.65;;;18.30;79.30;;;;;;5095350;28;20484;-74
2021/09/30 09:52:57;;;;;;;5.85;1.55;;;18.40;79.90;;;;;;5095157;28;20032;-74
2021/09/30 09:55:36;;;;;;;5.68;1.50;;;18.50;79.40;;;;;;5095699;28;20024;-74
2021/09/30 09:58:07;;;;;;;7.88;1.75;;;18.70;77.90;;;;;;5095352;28;20039;-75
2021/09/30 10:00:54;;;;;;;6.70;1.83;;;18.70;76.10;;;;;;5095289;28;20020;-75
2021/09/30 10:03:31;;;;;;;4.75;1.77;;;18.70;78.00;;;;;;5094970;28;20036;-74
2021/09/30 10:06:05;;;;;;;8.90;2.35;;;18.90;79.40;;;;;;5095209;28;20387;-73
2021/09/30 10:08:32;;;;;;;6.45;1.73;;;18.90;80.10;;;;;;5095449;28;20027;-74
2021/09/30 10:10:59;;;;;;;4.15;1.40;;;18.70;79.00;;;;;;5094409;28;20040;-73
2021/09/30 10:13:27;;;;;;;6.50;1.67;;;18.60;79.60;;;;;;5095316;28;20082;-73
2021/09/30 10:15:54;;;;;;;11.32;2.28;;;18.60;85.10;;;;;;5094683;28;20020;-72
2021/09/30 10:18:25;;;;;;;3.38;1.63;;;18.50;80.50;;;;;;5094648;28;20383;-75
2021/09/30 10:20:51;;;;;;;6.68;1.65;;;18.30;80.60;;;;;;5094563;28;20066;-73
2021/09/30 10:23:36;;;;;;;8.00;1.73;;;18.10;80.90;;;;;;5094484;28;20034;-73
2021/09/30 10:26:15;;;;;;;5.10;1.75;;;18.00;76.50;;;;;;5093535;28;20430;-74
2021/09/30 10:28:44;;;;;;;4.53;1.85;;;17.70;81.80;;;;;;5094461;28;20476;-74
2021/09/30 10:31:28;;;;;;;4.25;1.60;;;17.50;85.40;;;;;;5094425;28;20020;-77
2021/09/30 10:33:55;;;;;;;5.53;1.88;;;17.50;81.80;;;;;;5094872;28;20024;-72
2021/09/30 10:36:46;;;;;;;10.35;2.10;;;17.40;82.30;;;;;;5094315;28;20541;-75
2021/09/30 10:39:29;;;;;;;8.75;2.13;;;17.40;83.50;;;;;;5094599;28;20030;-75
2021/09/30 10:42:00;;;;;;;7.18;1.73;;;17.40;85.30;;;;;;5094372;28;20062;-74
2021/09/30 10:44:30;;;;;;;8.55;1.52;;;17.40;86.40;;;;;;5094172;28;20387;-72
2021/09/30 10:46:58;;;;;;;4.95;1.48;;;17.40;85.00;;;;;;5094182;28;20032;-73
2021/09/30 10:49:45;;;;;;;9.57;1.83;;;17.40;87.30;;;;;;5094325;28;20027;-74
2021/09/30 10:52:16;;;;;;;4.53;1.35;;;17.40;86.40;;;;;;5094639;28;20055;-75
2021/09/30 10:54:46;;;;;;;6.25;2.00;;;17.30;87.60;;;;;;5093992;28;20062;-76
2021/09/30 10:57:30;;;;;;;9.45;2.05;;;17.20;86.20;;;;;;5093936;28;20081;-74
2021/09/30 10:59:56;;;;;;;5.10;1.35;;;17.20;86.60;;;;;;5093908;28;20032;-74
2021/09/30 11:02:21;;;;;;;5.28;1.55;;;17.10;89.40;;;;;;5093776;28;20047;-73
2021/09/30 11:05:09;;;;;;;4.90;1.83;;;17.20;89.00;;;;;;5093823;28;20396;-76
2021/09/30 11:07:38;;;;;;;5.18;1.80;;;17.20;86.30;;;;;;5094067;28;20019;-74
2021/09/30 11:10:17;;;;;;;7.70;1.45;;;17.20;88.60;;;;;;5093358;28;20048;-75
2021/09/30 11:13:19;;;;;;;4.95;1.83;;;17.40;90.50;;;;;;5093673;28;20095;-73
2021/09/30 11:16:12;;;;;;;5.28;1.15;;;17.40;87.60;;;;;;5093368;28;20093;-75
2021/09/30 11:18:42;;;;;;;3.20;1.27;;;17.50;86.40;;;;;;5094259;28;20094;-72
2021/09/30 11:21:30;;;;;;;8.85;1.65;;;17.50;88.70;;;;;;5093553;28;20153;-74
2021/09/30 11:24:14;;;;;;;6.18;1.40;;;17.60;86.50;;;;;;5093869;28;20046;-74
2021/09/30 11:26:49;;;;;;;2.92;1.27;;;17.60;85.80;;;;;;5093848;28;20016;-74
2021/09/30 11:29:36;;;;;;;5.63;1.33;;;17.60;89.30;;;;;;5094039;28;20483;-73
2021/09/30 11:32:02;;;;;;;4.93;1.70;;;17.60;86.20;;;;;;5093484;28;20476;-74
2021/09/30 11:34:31;;;;;;;5.20;1.40;;;17.60;87.30;;;;;;5093432;28;20398;-75
2021/09/30 11:37:01;;;;;;;6.88;1.55;;;17.70;88.90;;;;;;5093365;28;20024;-75
2021/09/30 11:39:33;;;;;;;6.32;1.27;;;17.70;87.50;;;;;;5093395;28;20115;-75
2021/09/30 11:42:00;;;;;;;6.88;1.70;;;17.70;87.30;;;;;;5093798;28;20028;-75
2021/09/30 11:44:26;;;;;;;6.00;1.52;;;17.80;86.30;;;;;;5093294;28;20403;-74
2021/09/30 11:46:54;;;;;;;5.60;1.40;;;17.90;87.70;;;;;;5093289;28;20028;-75
2021/09/30 11:49:21;;;;;;;7.60;1.23;;;18.00;86.60;;;;;;5093293;28;20020;-74
2021/09/30 11:51:49;;;;;;;5.85;1.30;;;18.00;83.70;;;;;;5093266;28;20012;-76
2021/09/30 11:54:17;;;;;;;3.38;1.05;;;18.10;85.40;;;;;;5093509;28;20027;-74
2021/09/30 11:56:48;;;;;;;3.58;1.10;;;18.20;86.30;;;;;;5095170;28;20361;-72
2021/09/30 11:59:16;;;;;;;5.35;1.35;;;18.20;83.80;;;;;;5097373;28;20034;-72
2021/09/30 12:01:47;;;;;;;3.35;1.30;;;18.30;86.50;;;;;;5097232;28;20492;-72
2021/09/30 12:04:32;;;;;;;6.63;1.60;;;18.20;84.30;;;;;;5097590;28;20379;-74
2021/09/30 12:06:58;;;;;;;7.05;1.75;;;18.10;88.70;;;;;;5097532;28;20573;-72
2021/09/30 12:09:24;;;;;;;3.83;1.20;;;18.10;87.10;;;;;;5096939;28;20130;-75
2021/09/30 12:11:56;;;;;;;4.97;1.63;;;18.20;86.30;;;;;;5090624;28;20036;-73
2021/09/30 12:14:22;;;;;;;8.00;2.05;;;18.30;86.20;;;;;;5097665;28;20021;-75
2021/09/30 12:17:02;;;;;;;6.55;1.25;;;18.40;86.60;;;;;;5097292;28;20115;-75
2021/09/30 12:19:41;;;;;;;4.50;1.30;;;18.50;85.10;;;;;;5097382;28;20020;-74
2021/09/30 12:22:16;;;;;;;4.43;1.48;;;18.50;83.10;;;;;;5094981;28;20016;-78
2021/09/30 12:24:55;;;;;;;6.57;1.85;;;18.50;86.10;;;;;;5095393;28;20036;-76
2021/09/30 12:27:24;;;;;;;6.68;1.23;;;18.60;83.90;;;;;;5097124;28;20012;-78
2021/09/30 12:29:53;;;;;;;6.50;1.35;;;18.50;82.50;;;;;;5096477;28;20475;-77
2021/09/30 12:32:27;;;;;;;4.55;1.20;;;18.50;82.80;;;;;;5096933;28;20379;-76
2021/09/30 12:34:58;;;;;;;3.65;1.35;;;18.50;83.10;;;;;;5083558;28;20499;-77
2021/09/30 12:37:26;;;;;;;6.32;1.50;;;18.50;82.90;;;;;;5077549;28;20036;-76
2021/09/30 12:40:18;;;;;;;4.93;1.17;;;18.50;82.90;;;;;;5094367;28;20815;-77
2021/09/30 12:43:18;;;;;;;3.80;1.20;;;18.50;81.50;;;;;;5096145;28;20452;-76
2021/09/30 12:45:47;;;;;;;3.95;1.05;;;18.50;83.30;;;;;;5034880;28;20127;-79
2021/09/30 12:48:16;;;;;;;4.20;1.25;;;18.50;82.10;;;;;;5076670;28;20499;-75
2021/09/30 12:50:49;;;;;;;5.40;1.30;;;18.50;88.20;;;;;;5089856;28;20014;-74
2021/09/30 12:53:18;;;;;;;4.30;0.90;;;18.50;82.90;;;;;;5076410;28;20032;-77
2021/09/30 12:55:44;;;;;;;4.40;1.30;;;18.50;82.90;;;;;;5092827;28;20027;-83
2021/09/30 12:58:33;;;;;;;4.40;1.25;;;18.50;82.40;;;;;;5096263;28;20074;-72
2021/09/30 13:01:18;;;;;;;3.65;1.08;;;18.50;81.90;;;;;;5095609;28;20563;-79
2021/09/30 13:04:00;;;;;;;3.78;1.20;;;18.50;83.30;;;;;;5077693;28;20033;-76
2021/09/30 13:06:26;;;;;;;3.42;1.13;;;18.40;83.70;;;;;;5076113;28;20028;-80
2021/09/30 13:08:52;;;;;;;5.03;1.25;;;18.40;82.90;;;;;;5084693;28;20024;-78
2021/09/30 13:11:35;;;;;;;5.18;1.05;;;18.40;83.50;;;;;;5095545;28;20077;-77
2021/09/30 13:14:15;;;;;;;5.15;1.42;;;18.30;83.20;;;;;;5095806;28;20048;-78
2021/09/30 13:16:43;;;;;;;6.00;0.95;;;18.20;84.20;;;;;;5095894;28;20024;-77
2021/09/30 13:19:09;;;;;;;6.20;1.92;;;18.20;83.90;;;;;;5095876;28;20054;-75
2021/09/30 13:22:03;;;;;;;5.07;0.93;;;18.20;85.00;;;;;;5076398;28;20056;-77
2021/09/30 13:24:30;;;;;;;5.20;1.23;;;18.30;85.30;;;;;;5074450;28;20028;-80
2021/09/30 13:26:56;;;;;;;5.20;1.17;;;18.20;85.10;;;;;;5094658;28;20028;-77
2021/09/30 13:29:22;;;;;;;4.75;1.02;;;18.30;83.50;;;;;;5090453;28;20017;-83
2021/09/30 13:31:48;;;;;;;7.88;1.23;;;18.20;85.70;;;;;;5075339;28;20020;-76
2021/09/30 13:34:13;;;;;;;4.05;0.85;;;18.20;83.80;;;;;;5075259;28;20043;-75
2021/09/30 13:36:39;;;;;;;1.77;0.68;;;18.30;83.30;;;;;;5075371;28;20021;-75
2021/09/30 13:39:05;;;;;;;5.15;1.25;;;18.20;81.50;;;;;;5077558;28;20031;-76
2021/09/30 13:41:32;;;;;;;5.90;1.30;;;18.20;83.60;;;;;;5090745;28;20023;-77
2021/09/30 13:43:57;;;;;;;10.18;1.80;;;18.20;85.30;;;;;;5075141;28;20059;-75
2021/09/30 13:46:23;;;;;;;3.83;1.10;;;18.20;84.70;;;;;;5075045;28;20048;-76
2021/09/30 13:48:49;;;;;;;6.18;1.13;;;18.20;82.10;;;;;;5075112;28;20017;-77
2021/09/30 13:51:14;;;;;;;4.45;1.27;;;18.20;82.80;;;;;;5090224;28;20106;-76
2021/09/30 13:53:40;;;;;;;3.90;1.20;;;18.30;84.70;;;;;;5087948;28;20056;-77
2021/09/30 13:56:06;;;;;;;3.97;0.88;;;18.40;82.40;;;;;;5077548;28;20031;-79
2021/09/30 13:58:34;;;;;;;2.92;1.00;;;18.40;81.30;;;;;;5084374;28;20032;-73
2021/09/30 14:01:01;;;;;;;4.90;1.05;;;18.40;81.50;;;;;;5095017;28;20053;-75
2021/09/30 14:03:27;;;;;;;5.60;1.25;;;18.30;81.40;;;;;;5094606;28;20139;-78
2021/09/30 14:05:53;;;;;;;3.10;0.88;;;18.30;83.50;;;;;;5094980;28;20024;-83
2021/09/30 14:08:18;;;;;;;5.15;1.00;;;18.30;84.70;;;;;;5079259;28;20039;-78
2021/09/30 14:10:45;;;;;;;5.18;1.15;;;18.20;82.70;;;;;;5087453;28;20050;-76
2021/09/30 14:13:11;;;;;;;8.32;1.10;;;18.30;83.40;;;;;;5094886;28;20024;-78
2021/09/30 14:15:37;;;;;;;4.65;1.45;;;18.30;81.50;;;;;;5094339;28;20028;-78
2021/09/30 14:18:03;;;;;;;3.47;0.90;;;18.20;82.80;;;;;;5094757;28;20437;-78
2021/09/30 14:20:28;;;;;;;5.25;0.73;;;18.20;82.40;;;;;;5089851;28;20036;-79
2021/09/30 14:22:54;;;;;;;4.47;1.85;;;18.30;81.40;;;;;;5073941;28;20032;-81
2021/09/30 14:25:20;;;;;;;3.03;0.70;;;18.30;83.50;;;;;;5075334;28;20020;-73
2021/09/30 14:27:45;;;;;;;5.90;0.98;;;18.50;82.30;;;;;;5073942;28;20161;-73
2021/09/30 14:30:11;;;;;;;7.07;1.25;;;18.50;81.50;;;;;;5092909;28;20024;-73
2021/09/30 14:32:37;;;;;;;6.43;1.17;;;18.60;81.80;;;;;;5094038;28;20530;-73
2021/09/30 14:35:03;;;;;;;1.48;0.90;;;18.50;81.50;;;;;;5094401;28;20107;-73
2021/09/30 14:37:29;;;;;;;4.53;1.10;;;18.40;80.50;;;;;;5095002;28;20032;-73
2021/09/30 14:39:55;;;;;;;6.82;1.20;;;18.30;82.00;;;;;;5091168;28;20035;-73
2021/09/30 14:42:20;;;;;;;2.88;0.98;;;18.30;82.20;;;;;;5073883;28;20035;-72
2021/09/30 14:44:47;;;;;;;7.35;1.40;;;18.30;81.50;;;;;;5074464;28;20017;-73
2021/09/30 14:47:14;;;;;;;5.35;1.20;;;18.30;81.40;;;;;;5073872;28;20104;-73
2021/09/30 14:49:40;;;;;;;5.78;1.35;;;18.40;81.00;;;;;;5074810;28;20564;-73
2021/09/30 14:52:09;;;;;;;6.75;1.33;;;18.30;80.90;;;;;;5075334;28;20454;-79
2021/09/30 14:54:35;;;;;;;3.95;1.10;;;18.30;80.50;;;;;;5073811;28;20107;-79
2021/09/30 14:57:01;;;;;;;2.70;0.90;;;18.30;81.90;;;;;;5077368;28;20035;-77
2021/09/30 14:59:27;;;;;;;5.30;0.90;;;18.20;81.90;;;;;;5073622;28;20028;-81
2021/09/30 15:01:52;;;;;;;5.53;1.30;;;18.20;81.60;;;;;;5073951;28;20040;-79
2021/09/30 15:04:18;;;;;;;4.95;1.38;;;18.10;83.10;;;;;;5073894;28;20020;-76
2021/09/30 15:06:44;;;;;;;4.88;1.25;;;18.10;82.50;;;;;;5073953;28;20078;-83
2021/09/30 15:09:09;;;;;;;11.65;1.80;;;18.00;84.00;;;;;;5076141;28;20400;-77
2021/09/30 15:11:38;;;;;;;6.20;1.20;;;18.10;84.00;;;;;;5083186;28;20031;-76
2021/09/30 15:14:08;;;;;;;6.18;1.20;;;18.10;83.70;;;;;;5073795;28;20070;-77
2021/09/30 15:16:36;;;;;;;5.00;1.17;;;18.10;85.80;;;;;;5082574;28;20088;-76
2021/09/30 15:19:05;;;;;;;3.38;1.10;;;18.10;84.20;;;;;;5089610;28;20520;-76
2021/09/30 15:21:33;;;;;;;8.10;1.35;;;18.10;84.20;;;;;;5073356;28;20016;-77
2021/09/30 15:24:05;;;;;;;2.30;0.90;;;18.00;84.90;;;;;;5073304;28;20458;-77
2021/09/30 15:26:33;;;;;;;7.40;1.75;;;18.00;85.40;;;;;;5073533;28;20437;-76
2021/09/30 15:28:59;;;;;;;7.53;1.33;;;18.00;85.40;;;;;;5072252;28;20389;-75
2021/09/30 15:31:26;;;;;;;5.75;1.90;;;18.00;84.80;;;;;;5072437;28;20021;-78
2021/09/30 15:33:52;;;;;;;5.38;1.10;;;18.10;85.60;;;;;;5073362;28;20546;-79
2021/09/30 15:36:19;;;;;;;5.45;1.20;;;18.20;87.00;;;;;;5078682;28;20550;-73
2021/09/30 15:38:46;;;;;;;3.97;1.42;;;18.20;86.00;;;;;;5092300;28;20059;-73
2021/09/30 15:41:12;;;;;;;4.70;1.33;;;18.10;86.50;;;;;;5093308;28;20023;-74
2021/09/30 15:43:38;;;;;;;4.22;1.40;;;18.10;87.20;;;;;;5093244;28;20107;-75
2021/09/30 15:46:05;;;;;;;9.57;1.25;;;18.10;86.00;;;;;;5093351;28;20027;-75
2021/09/30 15:48:31;;;;;;;3.22;1.20;;;18.00;84.10;;;;;;5093251;28;20556;-74
2021/09/30 15:50:57;;;;;;;7.57;1.38;;;18.00;84.80;;;;;;5093152;28;20016;-73
2021/09/30 15:53:23;;;;;;;7.95;1.23;;;17.90;85.50;;;;;;5093227;28;20032;-74